sensor_id;sensor_type;location;lat;lon;timestamp;temperature;humidity
12013;DHT22;6065;48.138;16.402;2023-07-09T00:00:00;22.70;94.70
12013;DHT22;6065;48.138;16.402;2023-07-09T00:02:27;22.70;94.80
12013;DHT22;6065;48.138;16.402;2023-07-09T00:04:55;22.60;94.90
12013;DHT22;6065;48.138;16.402;2023-07-09T00:07:23;22.60;94.90
12013;DHT22;6065;48.138;16.402;2023-07-09T00:09:51;22.60;95.00
12013;DHT22;6065;48.138;16.402;2023-07-09T00:12:17;22.60;95.00
12013;DHT22;6065;48.138;16.402;2023-07-09T00:14:44;22.60;95.10
12013;DHT22;6065;48.138;16.402;2023-07-09T00:17:11;22.50;95.10
12013;DHT22;6065;48.138;16.402;2023-07-09T00:19:38;22.50;95.10
12013;DHT22;6065;48.138;16.402;2023-07-09T00:22:13;22.50;95.20
12013;DHT22;6065;48.138;16.402;2023-07-09T00:24:41;22.40;95.20
12013;DHT22;6065;48.138;16.402;2023-07-09T00:27:09;22.40;95.30
12013;DHT22;6065;48.138;16.402;2023-07-09T00:29:36;22.40;95.40
12013;DHT22;6065;48.138;16.402;2023-07-09T00:32:03;22.40;95.50
12013;DHT22;6065;48.138;16.402;2023-07-09T00:34:29;22.40;95.60
12013;DHT22;6065;48.138;16.402;2023-07-09T00:36:56;22.40;95.60
12013;DHT22;6065;48.138;16.402;2023-07-09T00:39:24;22.40;95.60
12013;DHT22;6065;48.138;16.402;2023-07-09T00:41:52;22.40;95.60
12013;DHT22;6065;48.138;16.402;2023-07-09T00:44:21;22.40;95.60
12013;DHT22;6065;48.138;16.402;2023-07-09T00:49:36;22.30;95.60
12013;DHT22;6065;48.138;16.402;2023-07-09T00:52:12;22.30;95.60
12013;DHT22;6065;48.138;16.402;2023-07-09T00:54:46;22.20;95.60
12013;DHT22;6065;48.138;16.402;2023-07-09T00:57:13;22.30;95.70
12013;DHT22;6065;48.138;16.402;2023-07-09T00:59:42;22.20;95.70
12013;DHT22;6065;48.138;16.402;2023-07-09T01:02:09;22.30;95.80
12013;DHT22;6065;48.138;16.402;2023-07-09T01:04:36;22.30;95.80
12013;DHT22;6065;48.138;16.402;2023-07-09T01:07:04;22.30;95.70
12013;DHT22;6065;48.138;16.402;2023-07-09T01:09:31;22.30;95.70
12013;DHT22;6065;48.138;16.402;2023-07-09T01:12:02;22.30;95.70
12013;DHT22;6065;48.138;16.402;2023-07-09T01:14:31;22.30;95.60
12013;DHT22;6065;48.138;16.402;2023-07-09T01:17:01;22.30;95.40
12013;DHT22;6065;48.138;16.402;2023-07-09T01:19:29;22.30;95.50
12013;DHT22;6065;48.138;16.402;2023-07-09T01:21:59;22.30;95.60
12013;DHT22;6065;48.138;16.402;2023-07-09T01:27:11;22.20;95.70
12013;DHT22;6065;48.138;16.402;2023-07-09T01:29:38;22.20;95.80
12013;DHT22;6065;48.138;16.402;2023-07-09T01:32:04;22.20;95.90
12013;DHT22;6065;48.138;16.402;2023-07-09T01:34:32;22.10;95.90
12013;DHT22;6065;48.138;16.402;2023-07-09T01:37:00;22.20;96.00
12013;DHT22;6065;48.138;16.402;2023-07-09T01:39:27;22.10;95.90
12013;DHT22;6065;48.138;16.402;2023-07-09T01:41:54;22.10;96.00
12013;DHT22;6065;48.138;16.402;2023-07-09T01:44:22;22.10;96.10
12013;DHT22;6065;48.138;16.402;2023-07-09T01:46:49;22.00;96.30
12013;DHT22;6065;48.138;16.402;2023-07-09T01:49:16;22.00;96.30
12013;DHT22;6065;48.138;16.402;2023-07-09T01:51:43;22.00;96.40
12013;DHT22;6065;48.138;16.402;2023-07-09T01:54:14;21.90;96.30
12013;DHT22;6065;48.138;16.402;2023-07-09T01:56:41;21.90;96.40
12013;DHT22;6065;48.138;16.402;2023-07-09T01:59:08;21.90;96.40
12013;DHT22;6065;48.138;16.402;2023-07-09T02:01:36;21.90;96.50
12013;DHT22;6065;48.138;16.402;2023-07-09T02:04:03;21.90;96.50
12013;DHT22;6065;48.138;16.402;2023-07-09T02:06:30;21.80;96.50
12013;DHT22;6065;48.138;16.402;2023-07-09T02:08:57;21.80;96.50
12013;DHT22;6065;48.138;16.402;2023-07-09T02:11:26;21.70;96.50
12013;DHT22;6065;48.138;16.402;2023-07-09T02:13:52;21.70;96.70
12013;DHT22;6065;48.138;16.402;2023-07-09T02:16:19;21.60;96.70
12013;DHT22;6065;48.138;16.402;2023-07-09T02:18:46;21.60;96.80
12013;DHT22;6065;48.138;16.402;2023-07-09T02:21:12;21.60;96.90
12013;DHT22;6065;48.138;16.402;2023-07-09T02:23:39;21.60;96.90
12013;DHT22;6065;48.138;16.402;2023-07-09T02:26:06;21.50;97.00
12013;DHT22;6065;48.138;16.402;2023-07-09T02:28:34;21.50;97.00
12013;DHT22;6065;48.138;16.402;2023-07-09T02:31:01;21.40;97.00
12013;DHT22;6065;48.138;16.402;2023-07-09T02:33:27;21.30;97.10
12013;DHT22;6065;48.138;16.402;2023-07-09T02:35:58;21.30;97.20
12013;DHT22;6065;48.138;16.402;2023-07-09T02:38:25;21.20;97.60
12013;DHT22;6065;48.138;16.402;2023-07-09T02:40:51;21.20;97.30
12013;DHT22;6065;48.138;16.402;2023-07-09T02:43:18;21.20;97.40
12013;DHT22;6065;48.138;16.402;2023-07-09T02:45:46;21.20;97.50
12013;DHT22;6065;48.138;16.402;2023-07-09T02:48:13;21.20;97.50
12013;DHT22;6065;48.138;16.402;2023-07-09T02:50:40;21.20;97.40
12013;DHT22;6065;48.138;16.402;2023-07-09T02:53:06;21.20;97.40
12013;DHT22;6065;48.138;16.402;2023-07-09T02:55:33;21.10;97.40
12013;DHT22;6065;48.138;16.402;2023-07-09T02:58:00;21.00;97.40
12013;DHT22;6065;48.138;16.402;2023-07-09T03:00:27;21.00;97.50
12013;DHT22;6065;48.138;16.402;2023-07-09T03:02:55;21.00;97.60
12013;DHT22;6065;48.138;16.402;2023-07-09T03:05:21;21.00;97.60
12013;DHT22;6065;48.138;16.402;2023-07-09T03:07:48;21.00;97.70
12013;DHT22;6065;48.138;16.402;2023-07-09T03:10:15;21.00;97.70
12013;DHT22;6065;48.138;16.402;2023-07-09T03:12:42;21.00;97.80
12013;DHT22;6065;48.138;16.402;2023-07-09T03:15:09;21.10;97.80
12013;DHT22;6065;48.138;16.402;2023-07-09T03:17:35;21.10;97.70
12013;DHT22;6065;48.138;16.402;2023-07-09T03:20:04;21.00;97.70
12013;DHT22;6065;48.138;16.402;2023-07-09T03:22:33;21.00;97.70
12013;DHT22;6065;48.138;16.402;2023-07-09T03:24:59;21.00;97.70
12013;DHT22;6065;48.138;16.402;2023-07-09T03:27:26;21.00;97.80
12013;DHT22;6065;48.138;16.402;2023-07-09T03:29:53;21.00;97.80
12013;DHT22;6065;48.138;16.402;2023-07-09T03:32:19;21.00;97.90
12013;DHT22;6065;48.138;16.402;2023-07-09T03:34:46;20.90;97.90
12013;DHT22;6065;48.138;16.402;2023-07-09T03:37:14;20.90;97.90
12013;DHT22;6065;48.138;16.402;2023-07-09T03:39:41;20.90;98.00
12013;DHT22;6065;48.138;16.402;2023-07-09T03:42:08;20.90;98.10
12013;DHT22;6065;48.138;16.402;2023-07-09T03:44:35;20.90;98.20
12013;DHT22;6065;48.138;16.402;2023-07-09T03:47:01;20.90;98.20
12013;DHT22;6065;48.138;16.402;2023-07-09T03:49:28;20.90;98.10
12013;DHT22;6065;48.138;16.402;2023-07-09T03:51:55;20.90;98.00
12013;DHT22;6065;48.138;16.402;2023-07-09T03:54:23;20.90;97.90
12013;DHT22;6065;48.138;16.402;2023-07-09T03:56:49;20.90;97.90
12013;DHT22;6065;48.138;16.402;2023-07-09T03:59:16;20.90;98.00
12013;DHT22;6065;48.138;16.402;2023-07-09T04:01:43;20.80;98.00
12013;DHT22;6065;48.138;16.402;2023-07-09T04:04:11;20.80;98.10
12013;DHT22;6065;48.138;16.402;2023-07-09T04:06:38;20.80;98.10
12013;DHT22;6065;48.138;16.402;2023-07-09T04:09:05;20.90;98.10
12013;DHT22;6065;48.138;16.402;2023-07-09T04:11:33;20.90;98.00
12013;DHT22;6065;48.138;16.402;2023-07-09T04:13:59;20.90;98.00
12013;DHT22;6065;48.138;16.402;2023-07-09T04:16:26;20.90;98.00
12013;DHT22;6065;48.138;16.402;2023-07-09T04:18:53;20.90;98.00
12013;DHT22;6065;48.138;16.402;2023-07-09T04:21:19;20.90;97.90
12013;DHT22;6065;48.138;16.402;2023-07-09T04:23:46;20.90;97.90
12013;DHT22;6065;48.138;16.402;2023-07-09T04:26:13;21.00;98.00
12013;DHT22;6065;48.138;16.402;2023-07-09T04:28:41;20.90;98.00
12013;DHT22;6065;48.138;16.402;2023-07-09T04:31:08;21.00;98.10
12013;DHT22;6065;48.138;16.402;2023-07-09T04:33:35;21.00;98.10
12013;DHT22;6065;48.138;16.402;2023-07-09T04:36:02;21.00;98.00
12013;DHT22;6065;48.138;16.402;2023-07-09T04:38:32;21.10;98.00
12013;DHT22;6065;48.138;16.402;2023-07-09T04:40:58;21.10;97.90
12013;DHT22;6065;48.138;16.402;2023-07-09T04:43:25;21.10;97.80
12013;DHT22;6065;48.138;16.402;2023-07-09T04:45:53;21.20;97.80
12013;DHT22;6065;48.138;16.402;2023-07-09T04:48:20;21.20;97.70
12013;DHT22;6065;48.138;16.402;2023-07-09T04:50:46;21.30;97.70
12013;DHT22;6065;48.138;16.402;2023-07-09T04:53:15;21.30;97.70
12013;DHT22;6065;48.138;16.402;2023-07-09T04:55:42;21.30;97.70
12013;DHT22;6065;48.138;16.402;2023-07-09T04:58:09;21.40;97.80
12013;DHT22;6065;48.138;16.402;2023-07-09T05:00:35;21.40;97.50
12013;DHT22;6065;48.138;16.402;2023-07-09T05:03:03;21.40;97.40
12013;DHT22;6065;48.138;16.402;2023-07-09T05:05:30;21.50;97.30
12013;DHT22;6065;48.138;16.402;2023-07-09T05:07:57;21.50;97.20
12013;DHT22;6065;48.138;16.402;2023-07-09T05:10:24;21.40;97.00
12013;DHT22;6065;48.138;16.402;2023-07-09T05:12:51;21.40;97.30
12013;DHT22;6065;48.138;16.402;2023-07-09T05:15:18;21.40;97.10
12013;DHT22;6065;48.138;16.402;2023-07-09T05:17:45;21.40;97.10
12013;DHT22;6065;48.138;16.402;2023-07-09T05:20:13;21.40;97.20
12013;DHT22;6065;48.138;16.402;2023-07-09T05:22:40;21.40;97.20
12013;DHT22;6065;48.138;16.402;2023-07-09T05:25:07;21.50;97.20
12013;DHT22;6065;48.138;16.402;2023-07-09T05:27:34;21.60;97.20
12013;DHT22;6065;48.138;16.402;2023-07-09T05:30:01;21.60;97.10
12013;DHT22;6065;48.138;16.402;2023-07-09T05:32:28;21.70;97.10
12013;DHT22;6065;48.138;16.402;2023-07-09T05:34:54;21.70;97.20
12013;DHT22;6065;48.138;16.402;2023-07-09T05:37:22;21.70;97.10
12013;DHT22;6065;48.138;16.402;2023-07-09T05:39:49;21.80;97.00
12013;DHT22;6065;48.138;16.402;2023-07-09T05:42:16;21.90;96.90
12013;DHT22;6065;48.138;16.402;2023-07-09T05:44:42;22.00;96.70
12013;DHT22;6065;48.138;16.402;2023-07-09T05:47:09;22.00;96.40
12013;DHT22;6065;48.138;16.402;2023-07-09T05:49:37;22.10;96.30
12013;DHT22;6065;48.138;16.402;2023-07-09T05:52:04;22.10;96.70
12013;DHT22;6065;48.138;16.402;2023-07-09T05:54:32;22.20;96.70
12013;DHT22;6065;48.138;16.402;2023-07-09T05:56:59;22.20;96.90
12013;DHT22;6065;48.138;16.402;2023-07-09T05:59:26;22.30;96.90
12013;DHT22;6065;48.138;16.402;2023-07-09T06:01:53;22.30;96.70
12013;DHT22;6065;48.138;16.402;2023-07-09T06:04:19;22.40;96.70
12013;DHT22;6065;48.138;16.402;2023-07-09T06:06:46;22.40;97.30
12013;DHT22;6065;48.138;16.402;2023-07-09T06:09:13;22.50;97.20
12013;DHT22;6065;48.138;16.402;2023-07-09T06:11:42;22.60;97.10
12013;DHT22;6065;48.138;16.402;2023-07-09T06:14:09;22.60;97.30
12013;DHT22;6065;48.138;16.402;2023-07-09T06:16:36;22.70;97.40
12013;DHT22;6065;48.138;16.402;2023-07-09T06:19:03;22.70;97.10
12013;DHT22;6065;48.138;16.402;2023-07-09T06:21:29;22.80;97.10
12013;DHT22;6065;48.138;16.402;2023-07-09T06:23:56;22.90;97.20
12013;DHT22;6065;48.138;16.402;2023-07-09T06:26:23;22.90;97.20
12013;DHT22;6065;48.138;16.402;2023-07-09T06:28:51;23.00;97.20
12013;DHT22;6065;48.138;16.402;2023-07-09T06:31:18;23.00;97.10
12013;DHT22;6065;48.138;16.402;2023-07-09T06:33:46;23.10;96.90
12013;DHT22;6065;48.138;16.402;2023-07-09T06:36:13;23.10;96.70
12013;DHT22;6065;48.138;16.402;2023-07-09T06:38:40;23.20;97.00
12013;DHT22;6065;48.138;16.402;2023-07-09T06:41:07;23.20;96.90
12013;DHT22;6065;48.138;16.402;2023-07-09T06:43:33;23.20;96.80
12013;DHT22;6065;48.138;16.402;2023-07-09T06:46:06;23.30;96.60
12013;DHT22;6065;48.138;16.402;2023-07-09T06:48:33;23.40;96.40
12013;DHT22;6065;48.138;16.402;2023-07-09T06:50:59;23.40;96.50
12013;DHT22;6065;48.138;16.402;2023-07-09T06:53:26;23.50;96.50
12013;DHT22;6065;48.138;16.402;2023-07-09T06:55:54;23.50;96.20
12013;DHT22;6065;48.138;16.402;2023-07-09T06:58:24;23.60;96.10
12013;DHT22;6065;48.138;16.402;2023-07-09T07:00:53;23.60;95.90
12013;DHT22;6065;48.138;16.402;2023-07-09T07:03:21;23.70;95.80
12013;DHT22;6065;48.138;16.402;2023-07-09T07:05:49;23.80;95.70
12013;DHT22;6065;48.138;16.402;2023-07-09T07:08:16;23.80;95.60
12013;DHT22;6065;48.138;16.402;2023-07-09T07:10:44;23.90;95.30
12013;DHT22;6065;48.138;16.402;2023-07-09T07:13:10;23.90;95.30
12013;DHT22;6065;48.138;16.402;2023-07-09T07:15:38;24.00;95.10
12013;DHT22;6065;48.138;16.402;2023-07-09T07:18:05;24.10;95.40
12013;DHT22;6065;48.138;16.402;2023-07-09T07:20:33;24.10;95.30
12013;DHT22;6065;48.138;16.402;2023-07-09T07:23:00;24.20;95.50
12013;DHT22;6065;48.138;16.402;2023-07-09T07:25:26;24.20;95.20
12013;DHT22;6065;48.138;16.402;2023-07-09T07:27:53;24.30;95.20
12013;DHT22;6065;48.138;16.402;2023-07-09T07:30:20;24.30;94.80
12013;DHT22;6065;48.138;16.402;2023-07-09T07:32:47;24.50;94.70
12013;DHT22;6065;48.138;16.402;2023-07-09T07:35:15;24.50;94.90
12013;DHT22;6065;48.138;16.402;2023-07-09T07:37:43;24.60;94.80
12013;DHT22;6065;48.138;16.402;2023-07-09T07:40:10;24.60;94.80
12013;DHT22;6065;48.138;16.402;2023-07-09T07:42:37;24.70;95.10
12013;DHT22;6065;48.138;16.402;2023-07-09T07:45:04;24.80;95.00
12013;DHT22;6065;48.138;16.402;2023-07-09T07:47:32;24.90;95.40
12013;DHT22;6065;48.138;16.402;2023-07-09T07:49:59;25.00;95.30
12013;DHT22;6065;48.138;16.402;2023-07-09T07:52:27;25.00;94.80
12013;DHT22;6065;48.138;16.402;2023-07-09T07:54:55;25.10;95.30
12013;DHT22;6065;48.138;16.402;2023-07-09T07:57:23;25.20;94.90
12013;DHT22;6065;48.138;16.402;2023-07-09T07:59:51;25.20;94.90
12013;DHT22;6065;48.138;16.402;2023-07-09T08:02:17;25.30;94.50
12013;DHT22;6065;48.138;16.402;2023-07-09T08:04:44;25.30;94.60
12013;DHT22;6065;48.138;16.402;2023-07-09T08:07:11;25.30;94.50
12013;DHT22;6065;48.138;16.402;2023-07-09T08:09:38;25.40;95.10
12013;DHT22;6065;48.138;16.402;2023-07-09T08:12:06;25.50;95.10
12013;DHT22;6065;48.138;16.402;2023-07-09T08:14:36;25.60;94.40
12013;DHT22;6065;48.138;16.402;2023-07-09T08:17:04;25.70;94.20
12013;DHT22;6065;48.138;16.402;2023-07-09T08:19:31;25.80;93.60
12013;DHT22;6065;48.138;16.402;2023-07-09T08:21:57;25.90;93.20
12013;DHT22;6065;48.138;16.402;2023-07-09T08:24:24;25.90;93.30
12013;DHT22;6065;48.138;16.402;2023-07-09T08:26:51;25.90;93.20
12013;DHT22;6065;48.138;16.402;2023-07-09T08:29:19;25.90;93.20
12013;DHT22;6065;48.138;16.402;2023-07-09T08:31:45;25.90;93.00
12013;DHT22;6065;48.138;16.402;2023-07-09T08:34:12;26.00;93.40
12013;DHT22;6065;48.138;16.402;2023-07-09T08:36:39;26.10;93.10
12013;DHT22;6065;48.138;16.402;2023-07-09T08:39:06;26.20;92.90
12013;DHT22;6065;48.138;16.402;2023-07-09T08:41:35;26.20;92.70
12013;DHT22;6065;48.138;16.402;2023-07-09T08:44:07;26.20;92.60
12013;DHT22;6065;48.138;16.402;2023-07-09T08:46:38;26.30;92.40
12013;DHT22;6065;48.138;16.402;2023-07-09T08:49:12;26.30;92.20
12013;DHT22;6065;48.138;16.402;2023-07-09T08:51:41;26.40;92.30
12013;DHT22;6065;48.138;16.402;2023-07-09T08:54:09;26.40;92.10
12013;DHT22;6065;48.138;16.402;2023-07-09T08:56:38;26.50;91.90
12013;DHT22;6065;48.138;16.402;2023-07-09T08:59:04;26.60;91.60
12013;DHT22;6065;48.138;16.402;2023-07-09T09:01:34;26.70;91.80
12013;DHT22;6065;48.138;16.402;2023-07-09T09:04:04;26.70;91.80
12013;DHT22;6065;48.138;16.402;2023-07-09T09:06:31;26.80;91.80
12013;DHT22;6065;48.138;16.402;2023-07-09T09:09:03;26.80;91.80
12013;DHT22;6065;48.138;16.402;2023-07-09T09:11:34;26.90;91.80
12013;DHT22;6065;48.138;16.402;2023-07-09T09:14:05;27.10;91.00
12013;DHT22;6065;48.138;16.402;2023-07-09T09:16:33;27.10;90.40
12013;DHT22;6065;48.138;16.402;2023-07-09T09:19:00;27.20;90.60
12013;DHT22;6065;48.138;16.402;2023-07-09T09:21:31;27.20;90.40
12013;DHT22;6065;48.138;16.402;2023-07-09T09:24:03;27.20;90.30
12013;DHT22;6065;48.138;16.402;2023-07-09T09:26:35;27.30;90.90
12013;DHT22;6065;48.138;16.402;2023-07-09T09:29:07;27.40;91.40
12013;DHT22;6065;48.138;16.402;2023-07-09T09:31:36;27.40;90.80
12013;DHT22;6065;48.138;16.402;2023-07-09T09:34:03;27.60;90.60
12013;DHT22;6065;48.138;16.402;2023-07-09T09:36:36;27.70;90.10
12013;DHT22;6065;48.138;16.402;2023-07-09T09:39:03;27.80;90.80
12013;DHT22;6065;48.138;16.402;2023-07-09T09:41:36;27.80;90.50
12013;DHT22;6065;48.138;16.402;2023-07-09T09:44:03;27.80;90.60
12013;DHT22;6065;48.138;16.402;2023-07-09T09:46:31;27.90;90.50
12013;DHT22;6065;48.138;16.402;2023-07-09T09:48:59;27.90;90.50
12013;DHT22;6065;48.138;16.402;2023-07-09T09:51:26;28.00;89.90
12013;DHT22;6065;48.138;16.402;2023-07-09T09:53:55;28.10;88.00
12013;DHT22;6065;48.138;16.402;2023-07-09T09:56:26;28.10;86.80
12013;DHT22;6065;48.138;16.402;2023-07-09T09:58:53;28.20;87.00
12013;DHT22;6065;48.138;16.402;2023-07-09T10:01:21;28.20;87.90
12013;DHT22;6065;48.138;16.402;2023-07-09T10:03:54;28.20;86.90
12013;DHT22;6065;48.138;16.402;2023-07-09T10:06:24;28.20;86.30
12013;DHT22;6065;48.138;16.402;2023-07-09T10:08:56;28.30;85.30
12013;DHT22;6065;48.138;16.402;2023-07-09T10:11:26;28.40;85.40
12013;DHT22;6065;48.138;16.402;2023-07-09T10:13:59;28.40;85.60
12013;DHT22;6065;48.138;16.402;2023-07-09T10:16:29;28.50;87.80
12013;DHT22;6065;48.138;16.402;2023-07-09T10:19:04;28.60;88.70
12013;DHT22;6065;48.138;16.402;2023-07-09T10:21:37;28.70;87.10
12013;DHT22;6065;48.138;16.402;2023-07-09T10:24:15;28.80;85.50
12013;DHT22;6065;48.138;16.402;2023-07-09T10:26:48;28.90;84.80
12013;DHT22;6065;48.138;16.402;2023-07-09T10:29:25;29.00;82.50
12013;DHT22;6065;48.138;16.402;2023-07-09T10:32:09;29.00;81.80
12013;DHT22;6065;48.138;16.402;2023-07-09T10:34:40;29.10;81.20
12013;DHT22;6065;48.138;16.402;2023-07-09T10:37:23;29.10;81.70
12013;DHT22;6065;48.138;16.402;2023-07-09T10:39:57;29.20;81.90
12013;DHT22;6065;48.138;16.402;2023-07-09T10:42:24;29.20;80.80
12013;DHT22;6065;48.138;16.402;2023-07-09T10:44:54;29.20;79.20
12013;DHT22;6065;48.138;16.402;2023-07-09T10:47:26;29.20;79.00
12013;DHT22;6065;48.138;16.402;2023-07-09T10:49:53;29.30;78.70
12013;DHT22;6065;48.138;16.402;2023-07-09T10:52:23;29.40;79.60
12013;DHT22;6065;48.138;16.402;2023-07-09T10:54:54;29.60;77.30
12013;DHT22;6065;48.138;16.402;2023-07-09T10:57:25;29.70;76.60
12013;DHT22;6065;48.138;16.402;2023-07-09T10:59:54;29.80;73.80
12013;DHT22;6065;48.138;16.402;2023-07-09T11:02:23;29.80;74.50
12013;DHT22;6065;48.138;16.402;2023-07-09T11:04:51;29.90;74.80
12013;DHT22;6065;48.138;16.402;2023-07-09T11:07:21;30.00;75.20
12013;DHT22;6065;48.138;16.402;2023-07-09T11:09:49;30.10;75.60
12013;DHT22;6065;48.138;16.402;2023-07-09T11:12:23;30.20;77.40
12013;DHT22;6065;48.138;16.402;2023-07-09T11:14:53;30.30;78.70
12013;DHT22;6065;48.138;16.402;2023-07-09T11:17:21;30.30;77.70
12013;DHT22;6065;48.138;16.402;2023-07-09T11:19:52;30.40;77.60
12013;DHT22;6065;48.138;16.402;2023-07-09T11:22:20;30.40;79.30
12013;DHT22;6065;48.138;16.402;2023-07-09T11:24:48;30.50;76.30
12013;DHT22;6065;48.138;16.402;2023-07-09T11:27:16;30.60;79.20
12013;DHT22;6065;48.138;16.402;2023-07-09T11:29:45;30.80;76.10
12013;DHT22;6065;48.138;16.402;2023-07-09T11:32:18;30.90;75.30
12013;DHT22;6065;48.138;16.402;2023-07-09T11:34:45;31.00;75.30
12013;DHT22;6065;48.138;16.402;2023-07-09T11:37:13;31.00;77.30
12013;DHT22;6065;48.138;16.402;2023-07-09T11:39:44;31.10;76.40
12013;DHT22;6065;48.138;16.402;2023-07-09T11:42:24;31.10;74.10
12013;DHT22;6065;48.138;16.402;2023-07-09T11:44:52;31.10;73.60
12013;DHT22;6065;48.138;16.402;2023-07-09T11:47:22;31.20;73.20
12013;DHT22;6065;48.138;16.402;2023-07-09T11:49:51;31.30;74.30
12013;DHT22;6065;48.138;16.402;2023-07-09T11:52:19;31.30;74.50
12013;DHT22;6065;48.138;16.402;2023-07-09T11:54:48;31.40;72.60
12013;DHT22;6065;48.138;16.402;2023-07-09T11:57:16;31.30;72.60
12013;DHT22;6065;48.138;16.402;2023-07-09T11:59:44;31.30;73.50
12013;DHT22;6065;48.138;16.402;2023-07-09T12:02:16;31.40;71.90
12013;DHT22;6065;48.138;16.402;2023-07-09T12:04:44;31.50;71.20
12013;DHT22;6065;48.138;16.402;2023-07-09T12:07:13;31.50;71.20
12013;DHT22;6065;48.138;16.402;2023-07-09T12:09:43;31.60;71.50
12013;DHT22;6065;48.138;16.402;2023-07-09T12:12:16;31.70;70.70
12013;DHT22;6065;48.138;16.402;2023-07-09T12:14:44;31.80;70.60
12013;DHT22;6065;48.138;16.402;2023-07-09T12:17:10;31.90;70.50
12013;DHT22;6065;48.138;16.402;2023-07-09T12:19:37;31.90;70.60
12013;DHT22;6065;48.138;16.402;2023-07-09T12:22:09;32.00;70.80
12013;DHT22;6065;48.138;16.402;2023-07-09T12:24:37;32.00;70.60
12013;DHT22;6065;48.138;16.402;2023-07-09T12:27:17;32.10;70.10
12013;DHT22;6065;48.138;16.402;2023-07-09T12:29:44;32.20;71.60
12013;DHT22;6065;48.138;16.402;2023-07-09T12:32:12;32.30;70.00
12013;DHT22;6065;48.138;16.402;2023-07-09T12:34:39;32.40;70.30
12013;DHT22;6065;48.138;16.402;2023-07-09T12:37:08;32.40;69.80
12013;DHT22;6065;48.138;16.402;2023-07-09T12:39:38;32.40;69.30
12013;DHT22;6065;48.138;16.402;2023-07-09T12:42:05;32.40;68.90
12013;DHT22;6065;48.138;16.402;2023-07-09T12:44:33;32.30;67.70
12013;DHT22;6065;48.138;16.402;2023-07-09T12:47:01;32.20;68.90
12013;DHT22;6065;48.138;16.402;2023-07-09T12:49:29;32.20;66.40
12013;DHT22;6065;48.138;16.402;2023-07-09T12:51:57;32.20;67.90
12013;DHT22;6065;48.138;16.402;2023-07-09T12:54:27;32.20;67.40
12013;DHT22;6065;48.138;16.402;2023-07-09T12:56:54;32.30;67.60
12013;DHT22;6065;48.138;16.402;2023-07-09T12:59:23;32.30;68.00
12013;DHT22;6065;48.138;16.402;2023-07-09T13:01:50;32.40;67.20
12013;DHT22;6065;48.138;16.402;2023-07-09T13:04:17;32.50;64.80
12013;DHT22;6065;48.138;16.402;2023-07-09T13:06:44;32.50;62.60
12013;DHT22;6065;48.138;16.402;2023-07-09T13:09:15;32.60;62.40
12013;DHT22;6065;48.138;16.402;2023-07-09T13:11:44;32.70;61.20
12013;DHT22;6065;48.138;16.402;2023-07-09T13:14:16;32.70;61.00
12013;DHT22;6065;48.138;16.402;2023-07-09T13:16:43;32.70;60.80
12013;DHT22;6065;48.138;16.402;2023-07-09T13:19:10;32.80;60.90
12013;DHT22;6065;48.138;16.402;2023-07-09T13:21:36;32.80;61.10
12013;DHT22;6065;48.138;16.402;2023-07-09T13:24:07;32.80;60.30
12013;DHT22;6065;48.138;16.402;2023-07-09T13:26:39;32.80;58.50
12013;DHT22;6065;48.138;16.402;2023-07-09T13:29:09;32.90;59.10
12013;DHT22;6065;48.138;16.402;2023-07-09T13:31:36;32.90;59.50
12013;DHT22;6065;48.138;16.402;2023-07-09T13:34:04;33.00;59.80
12013;DHT22;6065;48.138;16.402;2023-07-09T13:36:34;33.00;60.40
12013;DHT22;6065;48.138;16.402;2023-07-09T13:39:03;33.00;61.00
12013;DHT22;6065;48.138;16.402;2023-07-09T13:41:30;33.10;59.60
12013;DHT22;6065;48.138;16.402;2023-07-09T13:43:57;33.10;61.50
12013;DHT22;6065;48.138;16.402;2023-07-09T13:46:26;33.10;61.20
12013;DHT22;6065;48.138;16.402;2023-07-09T13:48:52;33.10;58.60
12013;DHT22;6065;48.138;16.402;2023-07-09T13:51:22;33.10;58.50
12013;DHT22;6065;48.138;16.402;2023-07-09T13:53:50;33.20;57.20
12013;DHT22;6065;48.138;16.402;2023-07-09T13:56:18;33.20;56.90
12013;DHT22;6065;48.138;16.402;2023-07-09T13:58:45;33.20;57.60
12013;DHT22;6065;48.138;16.402;2023-07-09T14:01:13;33.20;57.50
12013;DHT22;6065;48.138;16.402;2023-07-09T14:03:41;33.20;58.90
12013;DHT22;6065;48.138;16.402;2023-07-09T14:06:08;33.20;58.80
12013;DHT22;6065;48.138;16.402;2023-07-09T14:08:35;33.20;60.00
12013;DHT22;6065;48.138;16.402;2023-07-09T14:11:02;33.20;58.50
12013;DHT22;6065;48.138;16.402;2023-07-09T14:13:30;33.20;58.40
12013;DHT22;6065;48.138;16.402;2023-07-09T14:15:58;33.10;58.10
12013;DHT22;6065;48.138;16.402;2023-07-09T14:18:26;33.20;58.70
12013;DHT22;6065;48.138;16.402;2023-07-09T14:20:54;33.20;58.50
12013;DHT22;6065;48.138;16.402;2023-07-09T14:23:21;33.20;58.10
12013;DHT22;6065;48.138;16.402;2023-07-09T14:25:48;33.20;58.90
12013;DHT22;6065;48.138;16.402;2023-07-09T14:28:16;33.20;58.90
12013;DHT22;6065;48.138;16.402;2023-07-09T14:30:43;33.20;58.50
12013;DHT22;6065;48.138;16.402;2023-07-09T14:33:11;33.20;58.40
12013;DHT22;6065;48.138;16.402;2023-07-09T14:35:39;33.20;58.20
12013;DHT22;6065;48.138;16.402;2023-07-09T14:38:17;33.30;58.50
12013;DHT22;6065;48.138;16.402;2023-07-09T14:40:45;33.30;58.10
12013;DHT22;6065;48.138;16.402;2023-07-09T14:43:12;33.30;57.90
12013;DHT22;6065;48.138;16.402;2023-07-09T14:45:39;33.30;58.40
12013;DHT22;6065;48.138;16.402;2023-07-09T14:48:09;33.30;57.80
12013;DHT22;6065;48.138;16.402;2023-07-09T14:50:36;33.30;58.50
12013;DHT22;6065;48.138;16.402;2023-07-09T14:53:03;33.30;59.10
12013;DHT22;6065;48.138;16.402;2023-07-09T14:55:31;33.30;59.00
12013;DHT22;6065;48.138;16.402;2023-07-09T14:57:58;33.30;59.10
12013;DHT22;6065;48.138;16.402;2023-07-09T15:00:26;33.30;59.90
12013;DHT22;6065;48.138;16.402;2023-07-09T15:02:54;33.40;59.60
12013;DHT22;6065;48.138;16.402;2023-07-09T15:05:21;33.40;59.20
12013;DHT22;6065;48.138;16.402;2023-07-09T15:07:48;33.40;59.20
12013;DHT22;6065;48.138;16.402;2023-07-09T15:10:16;33.40;59.10
12013;DHT22;6065;48.138;16.402;2023-07-09T15:12:45;33.40;59.20
12013;DHT22;6065;48.138;16.402;2023-07-09T15:15:13;33.40;59.30
12013;DHT22;6065;48.138;16.402;2023-07-09T15:17:41;33.40;59.50
12013;DHT22;6065;48.138;16.402;2023-07-09T15:20:11;33.40;60.50
12013;DHT22;6065;48.138;16.402;2023-07-09T15:22:39;33.30;60.10
12013;DHT22;6065;48.138;16.402;2023-07-09T15:25:08;33.30;59.90
12013;DHT22;6065;48.138;16.402;2023-07-09T15:27:36;33.30;59.40
12013;DHT22;6065;48.138;16.402;2023-07-09T15:30:10;33.30;58.90
12013;DHT22;6065;48.138;16.402;2023-07-09T15:32:37;33.20;59.00
12013;DHT22;6065;48.138;16.402;2023-07-09T15:35:04;33.30;59.20
12013;DHT22;6065;48.138;16.402;2023-07-09T15:37:31;33.30;59.20
12013;DHT22;6065;48.138;16.402;2023-07-09T15:39:58;33.30;59.40